createdAt,value
2019-05-22T00:02:46.200Z,7.42
2019-05-22T00:05:43.033Z,6.28
2019-05-22T00:08:37.791Z,8.20
2019-05-22T00:11:33.743Z,7.30
2019-05-22T00:14:30.152Z,7.75
2019-05-22T00:17:33.251Z,7.45
2019-05-22T00:20:30.624Z,7.75
2019-05-22T00:23:25.109Z,7.95
2019-05-22T00:26:20.800Z,8.30
2019-05-22T00:29:17.102Z,7.60
2019-05-22T00:32:13.049Z,8.15
2019-05-22T00:35:07.167Z,8.65
2019-05-22T00:38:02.576Z,8.08
2019-05-22T00:40:58.506Z,8.38
2019-05-22T00:43:54.151Z,8.53
2019-05-22T00:46:49.019Z,8.45
2019-05-22T00:49:44.747Z,8.43
2019-05-22T00:52:49.815Z,8.85
2019-05-22T00:55:49.973Z,8.88
2019-05-22T00:58:52.623Z,8.85
2019-05-22T01:01:50.295Z,9.80
2019-05-22T01:04:46.815Z,9.43
2019-05-22T01:07:44.322Z,9.75
2019-05-22T01:10:41.422Z,9.73
2019-05-22T01:13:39.865Z,10.25
2019-05-22T01:16:35.966Z,10.05
2019-05-22T01:19:32.522Z,10.35
2019-05-22T01:22:30.360Z,11.10
2019-05-22T01:25:28.185Z,10.98
2019-05-22T01:28:25.607Z,10.78
2019-05-22T01:31:44.722Z,11.28
2019-05-22T01:34:39.335Z,10.90
2019-05-22T01:37:35.410Z,10.90
2019-05-22T01:40:51.151Z,10.43
2019-05-22T01:43:46.912Z,12.03
2019-05-22T01:46:45.274Z,11.63
2019-05-22T01:49:45.634Z,11.20
2019-05-22T01:52:41.741Z,12.03
2019-05-22T01:55:37.546Z,11.08
2019-05-22T01:58:35.657Z,11.73
2019-05-22T02:01:33.332Z,12.50
2019-05-22T02:04:27.881Z,12.63
2019-05-22T02:07:24.774Z,13.08
2019-05-22T02:10:27.001Z,12.58
2019-05-22T02:13:30.017Z,13.98
2019-05-22T02:16:25.466Z,12.90
2019-05-22T02:19:22.137Z,13.03
2019-05-22T02:22:18.331Z,13.50
2019-05-22T02:25:15.360Z,13.58
2019-05-22T02:28:13.275Z,13.78
2019-05-22T02:31:10.069Z,13.50
2019-05-22T02:34:10.692Z,13.18
2019-05-22T02:37:06.916Z,12.80
2019-05-22T02:40:02.384Z,13.03
2019-05-22T02:42:57.991Z,13.00
2019-05-22T02:45:53.217Z,12.90
2019-05-22T02:48:50.211Z,13.43
2019-05-22T02:51:45.611Z,12.35
2019-05-22T02:54:41.161Z,13.40
2019-05-22T02:57:36.506Z,13.30
2019-05-22T03:00:35.033Z,11.73
2019-05-22T03:03:31.748Z,13.28
2019-05-22T03:06:28.732Z,12.15
2019-05-22T03:09:31.047Z,14.63
2019-05-22T03:12:26.824Z,13.38
2019-05-22T03:15:24.362Z,13.83
2019-05-22T03:18:21.995Z,13.05
2019-05-22T03:21:17.554Z,12.15
2019-05-22T03:24:13.014Z,11.50
2019-05-22T03:27:10.234Z,11.78
2019-05-22T03:30:06.772Z,12.07
2019-05-22T03:33:03.035Z,12.35
2019-05-22T03:36:12.283Z,11.78
2019-05-22T03:39:09.106Z,11.80
2019-05-22T03:42:04.302Z,12.58
2019-05-22T03:44:59.608Z,12.95
2019-05-22T03:47:56.375Z,12.75
2019-05-22T03:50:52.550Z,12.03
2019-05-22T03:53:47.447Z,12.82
2019-05-22T03:56:45.344Z,13.38
2019-05-22T03:59:40.774Z,13.88
2019-05-22T04:02:37.111Z,11.97
2019-05-22T04:05:32.698Z,12.63
2019-05-22T04:08:32.035Z,12.82
2019-05-22T04:11:27.875Z,13.10
2019-05-22T04:14:22.662Z,12.35
2019-05-22T04:17:19.040Z,13.90
2019-05-22T04:20:17.775Z,13.45
2019-05-22T04:23:12.529Z,14.70
2019-05-22T04:26:07.609Z,14.68
2019-05-22T04:29:04.604Z,14.87
2019-05-22T04:32:17.413Z,15.40
2019-05-22T04:35:14.727Z,15.85
2019-05-22T04:38:10.132Z,15.05
2019-05-22T04:41:09.596Z,14.53
2019-05-22T04:44:04.863Z,15.18
2019-05-22T04:47:01.706Z,15.25
2019-05-22T04:50:06.701Z,14.90
2019-05-22T04:52:54.072Z,14.90
2019-05-22T04:55:49.581Z,14.35
2019-05-22T04:58:46.076Z,14.38
2019-05-22T05:01:41.467Z,14.58
2019-05-22T05:04:40.121Z,14.60
2019-05-22T05:10:04.831Z,13.85
2019-05-22T05:24:13.191Z,12.47
2019-05-22T05:27:38.650Z,12.60
2019-05-22T05:39:37.376Z,14.75
2019-05-22T05:48:17.314Z,13.68
2019-05-22T06:04:03.564Z,14.28
2019-05-22T06:16:35.124Z,14.78
2019-05-22T06:27:37.855Z,13.43
2019-05-22T06:30:54.956Z,13.78
2019-05-22T06:34:38.241Z,13.85
2019-05-22T06:37:45.175Z,13.93
2019-05-22T06:41:08.900Z,13.80
2019-05-22T06:45:04.182Z,14.80
2019-05-22T06:48:26.963Z,14.25
2019-05-22T06:51:44.354Z,12.88
2019-05-22T06:54:43.622Z,13.20
2019-05-22T07:01:26.978Z,14.68
2019-05-22T07:04:48.133Z,13.58
2019-05-22T07:08:29.333Z,14.35
2019-05-22T07:11:35.788Z,13.75
2019-05-22T07:14:39.644Z,14.00
2019-05-22T07:21:52.385Z,14.20
2019-05-22T07:24:50.349Z,14.15
2019-05-22T07:28:02.309Z,14.15
2019-05-22T07:31:14.897Z,13.90
2019-05-22T07:38:39.367Z,14.20
2019-05-22T07:41:51.143Z,14.40
2019-05-22T07:44:55.710Z,13.22
2019-05-22T07:48:03.365Z,13.85
2019-05-22T07:52:33.510Z,12.93
2019-05-22T07:59:45.141Z,13.08
2019-05-22T08:03:27.124Z,14.00
2019-05-22T08:06:26.867Z,13.30
2019-05-22T08:09:35.980Z,12.25
2019-05-22T08:13:13.717Z,13.18
2019-05-22T08:16:38.715Z,11.45
2019-05-22T08:19:40.667Z,11.78
2019-05-22T08:22:37.992Z,13.22
2019-05-22T08:25:56.149Z,13.60
2019-05-22T08:29:13.128Z,11.60
2019-05-22T08:36:09.943Z,11.90
2019-05-22T08:39:06.042Z,12.18
2019-05-22T08:42:01.922Z,11.85
2019-05-22T08:44:58.172Z,11.70
2019-05-22T08:47:59.169Z,11.80
2019-05-22T08:51:00.861Z,11.53
2019-05-22T08:54:05.910Z,11.60
2019-05-22T08:57:06.268Z,11.08
2019-05-22T09:00:04.993Z,12.35
2019-05-22T09:03:09.578Z,10.98
2019-05-22T09:06:14.523Z,12.60
2019-05-22T09:09:12.898Z,11.68
2019-05-22T09:12:17.946Z,11.55
2019-05-22T09:15:16.242Z,12.00
2019-05-22T09:18:14.878Z,11.68
2019-05-22T09:21:16.216Z,11.83
2019-05-22T09:24:17.648Z,11.50
2019-05-22T09:28:13.844Z,11.45
2019-05-22T09:31:11.688Z,11.40
2019-05-22T09:34:16.783Z,12.53
2019-05-22T09:37:13.582Z,12.07
2019-05-22T09:40:13.815Z,12.63
2019-05-22T09:43:20.257Z,12.10
2019-05-22T09:46:20.036Z,11.93
2019-05-22T09:49:23.808Z,11.68
2019-05-22T09:52:21.018Z,11.45
2019-05-22T09:55:18.747Z,11.97
2019-05-22T09:58:17.470Z,12.68
2019-05-22T10:01:18.103Z,11.83
2019-05-22T10:04:15.168Z,12.45
2019-05-22T10:07:14.789Z,11.93
2019-05-22T10:10:20.968Z,12.15
2019-05-22T10:13:17.506Z,12.25
2019-05-22T10:16:15.472Z,12.37
2019-05-22T10:19:12.701Z,10.53
2019-05-22T10:22:33.014Z,11.97
2019-05-22T10:25:37.295Z,11.22
2019-05-22T10:28:37.052Z,11.55
2019-05-22T10:31:37.919Z,12.50
2019-05-22T10:34:58.839Z,11.90
2019-05-22T10:38:04.304Z,12.25
2019-05-22T10:41:09.390Z,12.37
2019-05-22T10:44:33.864Z,11.68
2019-05-22T10:51:23.884Z,12.33
2019-05-22T10:54:22.047Z,12.40
2019-05-22T10:57:34.377Z,12.03
2019-05-22T11:00:40.750Z,12.93
2019-05-22T11:03:40.367Z,11.53
2019-05-22T11:06:47.953Z,11.83
2019-05-22T11:10:30.796Z,12.40
2019-05-22T11:13:38.148Z,12.82
2019-05-22T11:16:37.979Z,11.60
2019-05-22T11:19:39.585Z,11.83
2019-05-22T11:22:42.960Z,11.33
2019-05-22T11:25:53.292Z,11.57
2019-05-22T11:28:53.480Z,11.18
2019-05-22T11:31:52.981Z,12.25
2019-05-22T11:34:51.300Z,12.37
2019-05-22T11:37:49.926Z,11.43
2019-05-22T11:40:53.984Z,12.05
2019-05-22T11:43:52.382Z,12.18
2019-05-22T11:46:51.150Z,11.90
2019-05-22T11:49:49.670Z,11.95
2019-05-22T11:52:48.866Z,12.63
2019-05-22T11:55:48.180Z,11.65
2019-05-22T11:58:44.382Z,11.97
2019-05-22T12:02:06.867Z,11.30
2019-05-22T12:05:21.627Z,11.33
2019-05-22T12:08:22.128Z,10.60
2019-05-22T12:11:42.963Z,10.93
2019-05-22T12:14:58.055Z,11.03
2019-05-22T12:18:00.926Z,11.75
2019-05-22T12:20:58.875Z,11.10
2019-05-22T12:23:55.873Z,11.10
2019-05-22T12:26:55.383Z,11.25
2019-05-22T12:29:59.149Z,12.05
2019-05-22T12:33:11.735Z,10.80
2019-05-22T12:36:09.628Z,10.70
2019-05-22T12:39:11.605Z,11.57
2019-05-22T12:42:13.605Z,11.83
2019-05-22T12:45:11.494Z,11.50
2019-05-22T12:48:40.988Z,12.15
2019-05-22T12:51:40.717Z,11.25
2019-05-22T12:54:47.034Z,11.83
2019-05-22T12:57:35.097Z,11.80
2019-05-22T13:00:34.150Z,11.43
2019-05-22T13:03:29.609Z,11.73
2019-05-22T13:06:25.992Z,11.97
2019-05-22T13:09:22.500Z,11.90
2019-05-22T13:12:29.272Z,12.28
2019-05-22T13:15:29.803Z,12.00
2019-05-22T13:18:37.416Z,12.55
2019-05-22T13:21:37.533Z,12.60
2019-05-22T13:24:36.824Z,11.85
2019-05-22T13:27:34.008Z,12.23
2019-05-22T13:30:31.979Z,12.30
2019-05-22T13:33:31.284Z,12.10
2019-05-22T13:36:30.196Z,12.47
2019-05-22T13:39:28.316Z,13.38
2019-05-22T13:42:25.516Z,13.28
2019-05-22T13:45:29.234Z,12.63
2019-05-22T13:48:19.016Z,12.93
2019-05-22T13:51:16.374Z,13.18
2019-05-22T13:54:13.188Z,13.38
2019-05-22T13:57:09.581Z,12.70
2019-05-22T14:00:09.343Z,13.20
2019-05-22T14:03:05.072Z,13.38
2019-05-22T14:06:03.399Z,12.73
2019-05-22T14:09:03.364Z,12.90
2019-05-22T14:12:02.330Z,12.82
2019-05-22T14:14:58.417Z,13.48
2019-05-22T14:17:54.662Z,13.03
2019-05-22T14:20:53.118Z,12.47
2019-05-22T14:23:50.453Z,13.32
2019-05-22T14:26:47.376Z,12.82
2019-05-22T14:29:42.974Z,13.80
2019-05-22T14:32:43.612Z,13.13
2019-05-22T14:35:48.225Z,13.40
2019-05-22T14:38:39.737Z,13.83
2019-05-22T14:41:35.704Z,13.88
2019-05-22T14:44:33.943Z,14.15
2019-05-22T14:47:29.649Z,14.15
2019-05-22T14:50:27.070Z,15.28
2019-05-22T14:53:22.980Z,14.83
2019-05-22T14:56:19.059Z,14.43
2019-05-22T14:59:17.431Z,13.50
2019-05-22T15:02:13.416Z,14.63
2019-05-22T15:05:12.140Z,15.10
2019-05-22T15:08:11.639Z,14.07
2019-05-22T15:11:08.740Z,15.72
2019-05-22T15:14:04.832Z,14.80
2019-05-22T15:17:01.071Z,15.15
2019-05-22T15:19:57.432Z,14.53
2019-05-22T15:22:55.951Z,15.15
2019-05-22T15:25:49.812Z,15.45
2019-05-22T15:28:45.547Z,16.37
2019-05-22T15:31:41.409Z,16.77
2019-05-22T15:34:37.281Z,15.93
2019-05-22T15:37:35.790Z,17.10
2019-05-22T15:40:31.762Z,17.10
2019-05-22T15:43:29.437Z,16.48
2019-05-22T15:46:25.557Z,17.32
2019-05-22T15:49:24.303Z,18.15
2019-05-22T15:52:19.914Z,17.07
2019-05-22T15:55:17.487Z,17.62
2019-05-22T15:58:13.320Z,16.97
2019-05-22T16:01:11.572Z,16.02
2019-05-22T16:04:07.853Z,16.02
2019-05-22T16:07:03.741Z,15.80
2019-05-22T16:09:59.258Z,15.13
2019-05-22T16:12:56.183Z,15.23
2019-05-22T16:15:55.861Z,14.73
2019-05-22T16:18:53.352Z,14.85
2019-05-22T16:21:53.843Z,14.50
2019-05-22T16:24:49.944Z,14.03
2019-05-22T16:27:46.222Z,13.80
2019-05-22T16:30:42.942Z,13.40
2019-05-22T16:33:40.213Z,13.60
2019-05-22T16:36:37.595Z,14.30
2019-05-22T16:39:35.463Z,13.78
2019-05-22T16:42:31.695Z,13.38
2019-05-22T16:45:29.412Z,13.13
2019-05-22T16:48:29.276Z,12.82
2019-05-22T16:51:27.352Z,13.62
2019-05-22T16:54:24.891Z,13.15
2019-05-22T16:57:21.627Z,12.35
2019-05-22T17:00:20.052Z,12.15
2019-05-22T17:03:17.234Z,12.53
2019-05-22T17:06:12.559Z,11.75
2019-05-22T17:09:10.326Z,11.88
2019-05-22T17:12:09.122Z,10.78
2019-05-22T17:15:07.882Z,10.85
2019-05-22T17:18:05.872Z,10.78
2019-05-22T17:21:03.168Z,10.85
2019-05-22T17:24:00.866Z,10.85
2019-05-22T17:26:59.103Z,9.58
2019-05-22T17:29:57.197Z,9.50
2019-05-22T17:32:53.847Z,9.88
2019-05-22T17:35:50.432Z,10.18
2019-05-22T17:38:46.698Z,9.63
2019-05-22T17:41:45.009Z,9.38
2019-05-22T17:44:44.321Z,8.85
2019-05-22T17:47:42.674Z,10.60
2019-05-22T17:50:39.688Z,9.45
2019-05-22T17:53:36.503Z,8.78
2019-05-22T17:56:32.884Z,8.80
2019-05-22T17:59:28.994Z,9.68
2019-05-22T18:02:27.930Z,9.15
2019-05-22T18:05:24.453Z,9.23
2019-05-22T18:08:21.712Z,8.93
2019-05-22T18:11:17.527Z,8.63
2019-05-22T18:14:14.203Z,8.93
2019-05-22T18:17:10.258Z,8.40
2019-05-22T18:20:07.098Z,8.83
2019-05-22T18:23:07.420Z,8.88
2019-05-22T18:26:03.523Z,8.53
2019-05-22T18:28:58.941Z,8.38
2019-05-22T18:31:56.590Z,8.93
2019-05-22T18:34:52.548Z,9.03
2019-05-22T18:37:48.244Z,8.30
2019-05-22T18:40:44.051Z,8.60
2019-05-22T18:43:43.173Z,9.23
2019-05-22T18:46:39.592Z,8.43
2019-05-22T18:49:35.161Z,8.30
2019-05-22T18:52:40.650Z,8.88
2019-05-22T18:55:27.982Z,8.73
2019-05-22T18:58:25.716Z,7.92
2019-05-22T19:01:22.901Z,8.30
2019-05-22T19:04:18.802Z,8.63
2019-05-22T19:07:18.743Z,8.33
2019-05-22T19:10:15.203Z,8.45
2019-05-22T19:13:14.459Z,8.18
2019-05-22T19:16:10.304Z,8.25
2019-05-22T19:19:05.825Z,8.23
2019-05-22T19:22:01.631Z,8.25
2019-05-22T19:24:58.383Z,7.47
2019-05-22T19:27:53.630Z,8.13
2019-05-22T19:30:50.540Z,7.78
2019-05-22T19:33:47.122Z,7.87
2019-05-22T19:36:42.781Z,7.60
2019-05-22T19:39:40.360Z,8.65
2019-05-22T19:42:36.833Z,7.78
2019-05-22T19:45:33.589Z,7.85
2019-05-22T19:48:29.531Z,8.35
2019-05-22T19:51:26.826Z,7.90
2019-05-22T19:54:24.784Z,7.65
2019-05-22T19:57:21.204Z,7.70
2019-05-22T20:00:18.030Z,7.80
2019-05-22T20:03:13.802Z,7.30
2019-05-22T20:06:10.556Z,8.25
2019-05-22T20:09:08.199Z,7.55
2019-05-22T20:12:06.846Z,7.60
2019-05-22T20:15:03.621Z,7.35
2019-05-22T20:18:00.081Z,7.42
2019-05-22T20:20:55.951Z,7.75
2019-05-22T20:23:52.167Z,7.95
2019-05-22T20:26:49.321Z,7.35
2019-05-22T20:29:46.204Z,7.47
2019-05-22T20:32:42.315Z,7.35
2019-05-22T20:35:38.287Z,6.87
2019-05-22T20:38:34.107Z,7.30
2019-05-22T20:41:29.983Z,7.92
2019-05-22T20:44:26.224Z,7.87
2019-05-22T20:47:26.612Z,7.12
2019-05-22T20:50:23.541Z,7.40
2019-05-22T20:53:21.198Z,7.12
2019-05-22T20:56:19.804Z,6.95
2019-05-22T20:59:15.524Z,7.72
2019-05-22T21:02:13.783Z,6.92
2019-05-22T21:05:10.838Z,7.47
2019-05-22T21:08:12.127Z,6.90
2019-05-22T21:11:07.845Z,6.78
2019-05-22T21:14:04.561Z,7.55
2019-05-22T21:17:00.314Z,7.40
2019-05-22T21:19:55.889Z,7.20
2019-05-22T21:22:51.895Z,7.37
2019-05-22T21:25:47.572Z,7.15
2019-05-22T21:28:43.622Z,6.97
2019-05-22T21:31:39.269Z,7.20
2019-05-22T21:34:34.922Z,7.28
2019-05-22T21:37:30.905Z,7.15
2019-05-22T21:40:27.783Z,6.58
2019-05-22T21:43:23.967Z,6.62
2019-05-22T21:46:20.634Z,6.55
2019-05-22T21:49:17.123Z,7.08
2019-05-22T21:52:13.393Z,6.50
2019-05-22T21:55:12.334Z,6.80
2019-05-22T21:58:08.496Z,7.03
2019-05-22T22:01:28.161Z,7.28
2019-05-22T22:04:37.351Z,7.37
2019-05-22T22:07:33.840Z,7.15
2019-05-22T22:10:29.819Z,7.15
2019-05-22T22:13:28.778Z,7.62
2019-05-22T22:16:24.915Z,7.47
2019-05-22T22:19:21.804Z,6.72
2019-05-22T22:22:20.405Z,7.50
2019-05-22T22:25:16.745Z,7.22
2019-05-22T22:28:14.104Z,7.40
2019-05-22T22:31:10.916Z,7.65
2019-05-22T22:34:18.929Z,7.35
2019-05-22T22:37:15.820Z,7.17
2019-05-22T22:40:12.390Z,7.40
2019-05-22T22:43:10.806Z,7.72
2019-05-22T22:46:14.489Z,7.85
2019-05-22T22:49:13.280Z,8.45
2019-05-22T22:52:11.109Z,8.38
2019-05-22T22:55:22.430Z,8.65
2019-05-22T22:58:18.501Z,9.00
2019-05-22T23:01:16.790Z,8.30
2019-05-22T23:04:14.847Z,8.68
2019-05-22T23:07:12.576Z,8.28
2019-05-22T23:10:10.056Z,9.25
2019-05-22T23:13:06.546Z,9.65
2019-05-22T23:16:03.705Z,9.03
2019-05-22T23:19:42.925Z,8.25
2019-05-22T23:22:35.212Z,9.48
2019-05-22T23:25:30.814Z,8.63
2019-05-22T23:28:34.574Z,8.20
2019-05-22T23:31:25.044Z,8.68
2019-05-22T23:34:20.840Z,9.03
2019-05-22T23:37:18.747Z,8.63
2019-05-22T23:40:14.838Z,9.15
2019-05-22T23:43:11.204Z,8.30
2019-05-22T23:46:09.794Z,9.20
2019-05-22T23:49:05.084Z,9.15
2019-05-22T23:52:00.322Z,9.53
2019-05-22T23:54:57.340Z,9.63
2019-05-22T23:57:54.156Z,9.48
